Detall de PIREP

Printer-friendly versionPDF version

[2008/09/19 20:47:00]
Flight IATA:CT3110
Pilot Number:037
Company ICAO:CAT
Aircraft Type:AT72/F
PAX:48
Departing Airport: LEBL
Destination Airport: LEPA
Alternate Airport:LEBL
Online: VATSIM
Route:LARPA B31 TOLSO
Flight Level:FL170
No Slew and time accel
No pause
Crash detect
Detect pilot in Cockpit between each 30 and 45 minutes
20:47 Zero fuel Weight: 40069 Lbs, Fuel Weight: 4257 Lbs
20:47 VATSIM:LEBL 192030Z 04003KT 340V070 9999 FEW025 BKN060 22/16 Q1021 NOSIG
20:47 VATSIM:LEPA 192030Z 04006KT CAVOK 21/17 Q1020 NOSIG
20:48 Parking Brakes off
20:54 Take-off
20:54 Take off Weight: 44255 Lbs
20:54 Wind: 046? @ 003 Knots Heading: 196?
20:54 POS N41? 17? 28?? E002? 05? 11??
20:54 Flaps:1 at 128 Knots
20:54 Gear Up: 131 Knots
20:54 Flaps:0 at 147 Knots
21:05 TOC
21:05 Fuel Weight: 3739 Lb
21:07 TOD
21:07 Fuel Weight: 3685 Lb
21:07 TOC
21:07 Fuel Weight: 3682 Lb

21:09 Wind:036?@011 Knots Heading: 162? Ground Speed: 299 Knots Altitude 17214 ft
21:13 TOD
21:13 Fuel Weight: 3494 Lb
21:22 Gear Down: 213 Knots
21:22 Flaps:1 at 214 Knots
21:23 Flaps:2 at 155 Knots
21:24 Wind:052?@008 Knots Heading: 057? Ground Speed: 120 Knots Altitude 1010 ft
21:25 TouchDown:Rate -107 ft/min Speed: 113 Knots
21:26 VATSIM:LEPA 192100Z 05008KT CAVOK 20/17 Q1020 NOSIG
21:26 Land
21:26 Wind:052?@008 Knots
21:26 Heading: 058?
21:26 Flight Duration: 00:32
21:26 Landing Weight: 43415 Lbs
21:26 POS N39? 33? 21?? E002? 43? 45??
21:29 Parking brakes on
21:29 Block to Block Duration: 00:41
21:29 Final Fuel: 3326 Lbls
21:29 Spent Fuel: 930 Lbls
21:29 Flight Length: 131 NM
21:29 TOD Land Length: 47 NM

Exportar CSV

Powered by Drupal - Modified by Danger4k